createdAt,value
2023-05-23T00:01:55.114Z,119449.06
2023-05-23T00:06:59.398Z,119564.72
2023-05-23T00:12:02.228Z,119708.13
2023-05-23T00:17:06.044Z,119601.31
2023-05-23T00:22:10.780Z,119249.72
2023-05-23T00:27:13.548Z,118949.81
2023-05-23T00:32:16.331Z,118320.94
2023-05-23T00:37:20.455Z,118068.56
2023-05-23T00:42:23.312Z,117721.84
2023-05-23T00:47:26.183Z,117542.00
2023-05-23T00:52:30.595Z,117867.69
2023-05-23T00:57:34.393Z,117646.28
2023-05-23T01:02:41.616Z,117903.06
2023-05-23T01:07:46.765Z,118306.72
2023-05-23T01:12:59.709Z,118408.41
2023-05-23T01:18:09.230Z,118414.72
2023-05-23T01:23:29.348Z,118021.88
2023-05-23T01:28:42.541Z,118318.81
2023-05-23T01:33:45.358Z,117864.06
2023-05-23T01:38:48.284Z,117622.56
2023-05-23T01:43:53.008Z,117343.72
2023-05-23T01:48:56.859Z,116735.41
2023-05-23T01:53:59.692Z,116147.00
2023-05-23T01:59:04.309Z,115973.50
2023-05-23T02:04:07.190Z,115791.38
2023-05-23T02:09:10.135Z,115642.19
2023-05-23T02:14:14.285Z,115604.31
2023-05-23T02:19:18.122Z,115651.66
2023-05-23T02:24:22.628Z,115712.84
2023-05-23T02:29:26.771Z,115600.00
2023-05-23T02:34:29.647Z,115485.38
2023-05-23T02:39:32.555Z,115338.31
2023-05-23T02:44:36.757Z,115423.00
2023-05-23T02:49:39.642Z,116545.22
2023-05-23T02:54:42.913Z,117027.13
2023-05-23T02:59:47.150Z,117697.31
2023-05-23T03:04:51.047Z,118514.34
2023-05-23T03:09:54.019Z,119262.81
2023-05-23T03:14:58.367Z,120118.53
2023-05-23T03:20:01.360Z,120956.09
2023-05-23T03:25:04.725Z,121666.00
2023-05-23T03:30:11.970Z,122286.25
2023-05-23T03:35:14.984Z,122691.38
2023-05-23T03:40:17.918Z,122913.63
2023-05-23T03:45:23.259Z,123346.34
2023-05-23T03:50:26.611Z,123740.50
2023-05-23T03:55:32.634Z,124265.84
2023-05-23T04:00:37.199Z,124597.31
2023-05-23T04:05:43.219Z,124852.41
2023-05-23T04:10:46.523Z,125765.22
2023-05-23T04:15:52.293Z,125490.47
2023-05-23T04:20:56.502Z,126151.53
2023-05-23T04:25:59.686Z,126629.16
2023-05-23T04:31:10.193Z,127285.06
2023-05-23T04:36:14.068Z,127309.78
2023-05-23T04:41:23.428Z,128336.88
2023-05-23T04:47:09.156Z,129199.53
2023-05-23T04:52:35.299Z,129385.72
2023-05-23T04:57:38.414Z,129786.63
2023-05-23T05:02:44.367Z,130060.91
2023-05-23T05:07:47.354Z,131300.06
2023-05-23T05:12:50.480Z,132065.16
2023-05-23T05:17:56.384Z,132058.00
2023-05-23T05:22:59.661Z,132449.00
2023-05-23T05:28:05.982Z,132914.63
2023-05-23T05:33:13.768Z,133190.97
2023-05-23T05:38:17.327Z,133248.31
2023-05-23T05:43:20.351Z,133601.38
2023-05-23T05:48:24.769Z,133847.13
2023-05-23T05:53:29.904Z,134146.34
2023-05-23T05:58:32.861Z,134569.34
2023-05-23T06:03:39.956Z,134949.59
2023-05-23T06:08:43.300Z,135074.03
2023-05-23T06:13:50.600Z,135440.91
2023-05-23T06:18:54.859Z,135844.69
2023-05-23T06:23:59.465Z,135752.59
2023-05-23T06:29:17.532Z,143815.25
2023-05-23T06:34:20.870Z,143609.66
2023-05-23T06:39:23.659Z,143414.72
2023-05-23T06:44:27.807Z,143394.56
2023-05-23T06:49:30.663Z,143079.72
2023-05-23T06:54:33.554Z,141879.06
2023-05-23T06:59:38.239Z,141147.88
2023-05-23T07:04:41.330Z,140102.13
2023-05-23T07:09:51.278Z,139125.56
2023-05-23T07:14:57.103Z,138424.06
2023-05-23T07:20:02.883Z,138161.28
2023-05-23T07:25:08.515Z,137406.47
2023-05-23T07:30:14.324Z,136665.16
2023-05-23T07:35:17.772Z,136421.38
2023-05-23T07:40:21.904Z,136395.19
2023-05-23T07:45:26.247Z,135927.13
2023-05-23T07:50:29.579Z,135883.47
2023-05-23T07:55:32.817Z,135626.16
2023-05-23T08:00:37.162Z,135057.78
2023-05-23T08:05:48.450Z,135278.13
2023-05-23T08:10:51.398Z,135105.16
2023-05-23T08:16:01.907Z,134446.09
2023-05-23T08:21:06.860Z,133574.72
2023-05-23T08:26:10.584Z,133656.69
2023-05-23T08:31:16.099Z,133442.94
2023-05-23T08:36:19.507Z,133047.97
2023-05-23T08:41:25.937Z,132794.31
2023-05-23T08:46:41.635Z,133187.56
2023-05-23T08:51:44.869Z,132486.38
2023-05-23T08:56:54.066Z,132575.06
2023-05-23T09:01:58.514Z,132476.41
2023-05-23T09:07:02.436Z,132096.53
2023-05-23T09:12:06.820Z,131691.34
2023-05-23T09:17:12.255Z,131409.31
2023-05-23T09:22:15.073Z,130790.22
2023-05-23T09:27:32.479Z,130691.03
2023-05-23T09:32:37.177Z,130482.03
2023-05-23T09:37:45.844Z,129979.59
2023-05-23T09:42:52.303Z,130046.00
2023-05-23T09:47:56.531Z,129528.78
2023-05-23T09:52:59.389Z,129194.38
2023-05-23T09:58:02.548Z,128664.16
2023-05-23T10:03:13.737Z,128266.78
2023-05-23T10:08:19.972Z,127934.41
2023-05-23T10:13:23.963Z,127532.28
2023-05-23T10:18:30.455Z,127332.69
2023-05-23T10:23:33.053Z,126883.69
2023-05-23T10:28:36.189Z,126521.91
2023-05-23T10:33:44.451Z,126084.94
2023-05-23T10:38:52.652Z,125438.28
2023-05-23T10:43:58.422Z,124822.03
2023-05-23T10:49:03.666Z,124129.66
2023-05-23T10:54:12.042Z,123334.75
2023-05-23T10:59:21.821Z,122379.16
2023-05-23T11:04:29.929Z,120925.41
2023-05-23T11:09:32.770Z,120288.47
2023-05-23T11:14:55.114Z,120144.66
2023-05-23T11:20:05.749Z,120577.78
2023-05-23T11:25:10.099Z,118237.00
2023-05-23T11:30:14.665Z,116195.84
2023-05-23T11:35:19.069Z,115050.31
2023-05-23T11:40:29.649Z,113753.31
2023-05-23T11:45:33.728Z,112115.78
2023-05-23T11:50:45.588Z,110744.72
2023-05-23T11:55:53.231Z,109201.09
2023-05-23T12:01:00.171Z,108111.56
2023-05-23T12:06:04.581Z,106860.50
2023-05-23T12:11:07.466Z,106216.13
2023-05-23T12:16:11.907Z,105465.09
2023-05-23T12:21:16.185Z,105022.03
2023-05-23T12:26:19.297Z,104624.50
2023-05-23T12:31:22.943Z,104221.50
2023-05-23T12:36:32.264Z,103817.97
2023-05-23T12:41:35.144Z,103601.31
2023-05-23T12:46:38.298Z,103311.84
2023-05-23T12:51:42.642Z,103049.53
2023-05-23T12:56:45.485Z,102852.84
2023-05-23T13:01:48.428Z,102647.41
2023-05-23T13:06:52.874Z,102397.97
2023-05-23T13:11:55.891Z,102216.34
2023-05-23T13:16:58.816Z,101978.72
2023-05-23T13:22:04.500Z,101898.25
2023-05-23T13:27:07.967Z,101807.66
2023-05-23T13:32:10.765Z,101726.75
2023-05-23T13:37:14.913Z,101651.41
2023-05-23T13:42:17.709Z,101579.34
2023-05-23T13:47:20.505Z,101557.69
2023-05-23T13:52:24.651Z,101528.81
2023-05-23T13:57:27.400Z,101501.72
2023-05-23T14:02:31.988Z,101454.19
2023-05-23T14:07:36.460Z,101405.56
2023-05-23T14:12:39.273Z,101406.59
2023-05-23T14:17:42.065Z,101358.50
2023-05-23T14:22:46.189Z,101347.63
2023-05-23T14:27:49.021Z,101329.38
2023-05-23T14:32:51.822Z,101345.69
2023-05-23T14:37:56.081Z,101318.84
2023-05-23T14:42:58.855Z,101299.63
2023-05-23T14:48:01.698Z,101278.97
2023-05-23T14:53:05.916Z,101268.41
2023-05-23T14:58:08.714Z,101272.06
2023-05-23T15:03:12.014Z,101251.63
2023-05-23T15:08:16.999Z,101243.34
2023-05-23T15:13:19.845Z,101226.94
2023-05-23T15:18:38.839Z,101212.66
2023-05-23T15:23:44.392Z,101202.13
2023-05-23T15:28:47.377Z,101201.25
2023-05-23T15:33:50.240Z,101194.84
2023-05-23T15:38:54.386Z,101175.50
2023-05-23T15:43:57.258Z,101211.00
2023-05-23T15:49:07.510Z,101182.56
2023-05-23T15:54:21.579Z,101183.22
2023-05-23T15:59:24.450Z,101188.09
2023-05-23T16:04:27.208Z,101180.09
2023-05-23T16:09:31.356Z,101177.13
2023-05-23T16:14:34.187Z,101167.19
2023-05-23T16:19:37.003Z,101173.50
2023-05-23T16:24:41.170Z,101159.16
2023-05-23T16:29:44.030Z,101143.88
2023-05-23T16:34:52.679Z,101128.50
2023-05-23T16:39:58.248Z,101136.81
2023-05-23T16:45:01.260Z,101137.34
2023-05-23T16:50:04.950Z,101150.06
2023-05-23T16:55:09.363Z,101152.28
2023-05-23T17:00:13.378Z,101155.50
2023-05-23T17:05:16.166Z,101154.66
2023-05-23T17:10:20.520Z,101162.59
2023-05-23T17:15:23.417Z,101177.22
2023-05-23T17:20:26.955Z,101173.31
2023-05-23T17:25:31.283Z,101177.16
2023-05-23T17:30:34.086Z,101162.94
2023-05-23T17:35:36.846Z,101163.84
2023-05-23T17:40:42.038Z,101172.38
2023-05-23T17:45:45.100Z,101158.16
2023-05-23T17:50:47.871Z,101164.03
2023-05-23T17:55:51.991Z,101162.72
2023-05-23T18:00:54.834Z,101171.28
2023-05-23T18:05:57.778Z,101172.28
2023-05-23T18:11:02.545Z,101185.22
2023-05-23T18:16:05.459Z,101176.78
2023-05-23T18:21:09.420Z,101193.84
2023-05-23T18:26:13.589Z,101200.38
2023-05-23T18:31:16.669Z,101188.69
2023-05-23T18:36:19.629Z,101183.81
2023-05-23T18:41:24.048Z,101187.38
2023-05-23T18:46:27.239Z,101187.13
2023-05-23T18:51:30.076Z,101193.81
2023-05-23T18:56:34.232Z,101207.81
2023-05-23T19:01:37.091Z,101214.69
2023-05-23T19:06:39.977Z,101236.19
2023-05-23T19:11:44.111Z,101244.31
2023-05-23T19:16:47.028Z,101265.25
2023-05-23T19:21:49.988Z,101278.09
2023-05-23T19:26:54.235Z,101287.03
2023-05-23T19:31:57.175Z,101290.06
2023-05-23T19:37:00.560Z,101296.53
2023-05-23T19:42:05.062Z,101305.19
2023-05-23T19:47:07.991Z,101314.72
2023-05-23T19:52:10.771Z,101328.06
2023-05-23T19:57:14.886Z,101338.06
2023-05-23T20:02:17.962Z,101346.41
2023-05-23T20:07:20.771Z,101369.38
2023-05-23T20:12:24.996Z,101373.75
2023-05-23T20:17:29.242Z,101375.00
2023-05-23T20:22:32.055Z,101378.41
2023-05-23T20:27:36.215Z,101379.91
2023-05-23T20:32:38.998Z,101390.75
2023-05-23T20:37:43.947Z,101404.75
2023-05-23T20:42:49.696Z,101408.38
2023-05-23T20:47:53.696Z,101422.78
2023-05-23T20:52:56.564Z,101432.75
2023-05-23T20:58:00.748Z,101427.94
2023-05-23T21:03:03.708Z,101446.00
2023-05-23T21:08:06.727Z,101435.22
2023-05-23T21:13:10.871Z,101440.47
2023-05-23T21:18:13.651Z,101435.41
2023-05-23T21:23:16.615Z,101424.50
2023-05-23T21:28:21.096Z,101435.31
2023-05-23T21:33:24.185Z,101434.47
2023-05-23T21:38:27.608Z,101432.34
2023-05-23T21:43:31.728Z,101436.69
2023-05-23T21:48:34.490Z,101435.06
2023-05-23T21:53:37.247Z,101431.44
2023-05-23T21:58:41.472Z,101434.88
2023-05-23T22:03:44.783Z,101433.66
2023-05-23T22:08:47.630Z,101445.22
2023-05-23T22:13:51.743Z,101446.66
2023-05-23T22:18:58.034Z,101452.03
2023-05-23T22:24:00.673Z,101452.31
2023-05-23T22:29:04.847Z,101460.81
2023-05-23T22:34:07.632Z,101454.13
2023-05-23T22:39:10.693Z,101455.47
2023-05-23T22:44:14.802Z,101461.03
2023-05-23T22:49:17.573Z,101478.69
2023-05-23T22:54:20.315Z,101491.47
2023-05-23T22:59:24.510Z,101497.41
2023-05-23T23:04:30.942Z,101514.06
2023-05-23T23:09:33.784Z,101517.59
2023-05-23T23:14:37.903Z,101523.09
2023-05-23T23:19:41.234Z,101517.59
2023-05-23T23:24:44.005Z,101526.16
2023-05-23T23:29:48.116Z,101531.38
2023-05-23T23:34:50.949Z,101546.13
2023-05-23T23:39:53.753Z,101554.53
2023-05-23T23:44:57.883Z,101555.88
2023-05-23T23:50:00.713Z,101566.00
2023-05-23T23:55:03.571Z,101568.38
